sensor_id;sensor_type;location;lat;lon;timestamp;P1;durP1;ratioP1;P2;durP2;ratioP2
22191;SDS011;11261;52.456;10.850;2023-04-15T00:00:55;5.50;;;3.03;;
22191;SDS011;11261;52.456;10.850;2023-04-15T00:03:23;3.20;;;2.03;;
22191;SDS011;11261;52.456;10.850;2023-04-15T00:05:52;2.97;;;2.10;;
22191;SDS011;11261;52.456;10.850;2023-04-15T00:08:21;2.90;;;2.00;;
22191;SDS011;11261;52.456;10.850;2023-04-15T00:10:49;3.03;;;1.67;;
22191;SDS011;11261;52.456;10.850;2023-04-15T00:13:19;3.67;;;2.00;;
22191;SDS011;11261;52.456;10.850;2023-04-15T00:15:47;2.90;;;2.20;;
22191;SDS011;11261;52.456;10.850;2023-04-15T00:18:15;5.53;;;2.55;;
22191;SDS011;11261;52.456;10.850;2023-04-15T00:20:43;2.70;;;2.13;;
22191;SDS011;11261;52.456;10.850;2023-04-15T00:23:11;4.88;;;2.25;;
22191;SDS011;11261;52.456;10.850;2023-04-15T00:25:39;4.50;;;1.95;;
22191;SDS011;11261;52.456;10.850;2023-04-15T00:28:09;3.40;;;2.30;;
22191;SDS011;11261;52.456;10.850;2023-04-15T00:30:39;3.97;;;2.65;;
22191;SDS011;11261;52.456;10.850;2023-04-15T00:33:07;5.72;;;2.50;;
22191;SDS011;11261;52.456;10.850;2023-04-15T00:35:36;4.70;;;2.70;;
22191;SDS011;11261;52.456;10.850;2023-04-15T00:38:04;3.05;;;2.08;;
22191;SDS011;11261;52.456;10.850;2023-04-15T00:40:33;3.80;;;2.65;;
22191;SDS011;11261;52.456;10.850;2023-04-15T00:43:02;4.95;;;2.90;;
22191;SDS011;11261;52.456;10.850;2023-04-15T00:45:31;5.07;;;2.85;;
22191;SDS011;11261;52.456;10.850;2023-04-15T00:48:01;4.07;;;3.03;;
22191;SDS011;11261;52.456;10.850;2023-04-15T00:50:30;3.72;;;2.92;;
22191;SDS011;11261;52.456;10.850;2023-04-15T00:52:59;4.50;;;2.83;;
22191;SDS011;11261;52.456;10.850;2023-04-15T00:55:28;3.97;;;2.53;;
22191;SDS011;11261;52.456;10.850;2023-04-15T00:57:56;5.47;;;2.83;;
22191;SDS011;11261;52.456;10.850;2023-04-15T01:00:25;6.05;;;2.95;;
22191;SDS011;11261;52.456;10.850;2023-04-15T01:02:53;5.60;;;2.65;;
22191;SDS011;11261;52.456;10.850;2023-04-15T01:05:23;6.15;;;3.30;;
22191;SDS011;11261;52.456;10.850;2023-04-15T01:07:52;5.13;;;3.20;;
22191;SDS011;11261;52.456;10.850;2023-04-15T01:10:21;3.72;;;2.60;;
22191;SDS011;11261;52.456;10.850;2023-04-15T01:12:50;5.97;;;3.17;;
22191;SDS011;11261;52.456;10.850;2023-04-15T01:15:18;5.07;;;3.42;;
22191;SDS011;11261;52.456;10.850;2023-04-15T01:17:47;4.70;;;3.25;;
22191;SDS011;11261;52.456;10.850;2023-04-15T01:20:15;6.57;;;3.67;;
22191;SDS011;11261;52.456;10.850;2023-04-15T01:22:45;5.78;;;3.50;;
22191;SDS011;11261;52.456;10.850;2023-04-15T01:25:16;6.32;;;3.83;;
22191;SDS011;11261;52.456;10.850;2023-04-15T01:27:46;6.25;;;3.50;;
22191;SDS011;11261;52.456;10.850;2023-04-15T01:30:15;6.35;;;3.67;;
22191;SDS011;11261;52.456;10.850;2023-04-15T01:32:43;7.93;;;3.78;;
22191;SDS011;11261;52.456;10.850;2023-04-15T01:35:11;6.05;;;3.88;;
22191;SDS011;11261;52.456;10.850;2023-04-15T01:37:39;8.13;;;3.60;;
22191;SDS011;11261;52.456;10.850;2023-04-15T01:40:08;6.97;;;3.80;;
22191;SDS011;11261;52.456;10.850;2023-04-15T01:42:36;6.80;;;3.72;;
22191;SDS011;11261;52.456;10.850;2023-04-15T01:45:06;5.65;;;3.63;;
22191;SDS011;11261;52.456;10.850;2023-04-15T01:47:36;8.38;;;4.22;;
22191;SDS011;11261;52.456;10.850;2023-04-15T01:50:05;5.60;;;3.30;;
22191;SDS011;11261;52.456;10.850;2023-04-15T01:52:33;5.38;;;3.38;;
22191;SDS011;11261;52.456;10.850;2023-04-15T01:55:02;5.40;;;3.60;;
22191;SDS011;11261;52.456;10.850;2023-04-15T01:57:31;5.05;;;3.65;;
22191;SDS011;11261;52.456;10.850;2023-04-15T01:59:59;7.20;;;3.67;;
22191;SDS011;11261;52.456;10.850;2023-04-15T02:02:30;5.70;;;3.55;;
22191;SDS011;11261;52.456;10.850;2023-04-15T02:04:58;4.95;;;2.70;;
22191;SDS011;11261;52.456;10.850;2023-04-15T02:07:27;4.80;;;2.97;;
22191;SDS011;11261;52.456;10.850;2023-04-15T02:09:58;4.43;;;2.70;;
22191;SDS011;11261;52.456;10.850;2023-04-15T02:12:26;4.93;;;2.92;;
22191;SDS011;11261;52.456;10.850;2023-04-15T02:14:54;4.00;;;2.92;;
22191;SDS011;11261;52.456;10.850;2023-04-15T02:17:22;4.95;;;2.97;;
22191;SDS011;11261;52.456;10.850;2023-04-15T02:19:52;4.05;;;2.60;;
22191;SDS011;11261;52.456;10.850;2023-04-15T02:22:23;3.80;;;2.70;;
22191;SDS011;11261;52.456;10.850;2023-04-15T02:24:51;5.10;;;3.15;;
22191;SDS011;11261;52.456;10.850;2023-04-15T02:27:19;4.55;;;3.00;;
22191;SDS011;11261;52.456;10.850;2023-04-15T02:29:48;4.55;;;3.10;;
22191;SDS011;11261;52.456;10.850;2023-04-15T02:32:16;4.35;;;2.53;;
22191;SDS011;11261;52.456;10.850;2023-04-15T02:34:45;4.63;;;2.60;;
22191;SDS011;11261;52.456;10.850;2023-04-15T02:37:15;5.28;;;2.70;;
22191;SDS011;11261;52.456;10.850;2023-04-15T02:39:44;4.05;;;2.80;;
22191;SDS011;11261;52.456;10.850;2023-04-15T02:42:12;4.53;;;3.15;;
22191;SDS011;11261;52.456;10.850;2023-04-15T02:44:41;5.30;;;3.42;;
22191;SDS011;11261;52.456;10.850;2023-04-15T02:47:09;4.00;;;2.70;;
22191;SDS011;11261;52.456;10.850;2023-04-15T02:49:37;4.15;;;2.80;;
22191;SDS011;11261;52.456;10.850;2023-04-15T02:52:06;3.92;;;2.97;;
22191;SDS011;11261;52.456;10.850;2023-04-15T02:54:36;3.28;;;2.70;;
22191;SDS011;11261;52.456;10.850;2023-04-15T02:57:05;3.78;;;2.67;;
22191;SDS011;11261;52.456;10.850;2023-04-15T02:59:33;4.80;;;2.78;;
22191;SDS011;11261;52.456;10.850;2023-04-15T03:02:01;4.38;;;2.63;;
22191;SDS011;11261;52.456;10.850;2023-04-15T03:04:30;5.20;;;3.05;;
22191;SDS011;11261;52.456;10.850;2023-04-15T03:06:58;3.60;;;2.63;;
22191;SDS011;11261;52.456;10.850;2023-04-15T03:09:27;3.47;;;2.28;;
22191;SDS011;11261;52.456;10.850;2023-04-15T03:11:57;4.45;;;2.67;;
22191;SDS011;11261;52.456;10.850;2023-04-15T03:14:25;4.40;;;2.67;;
22191;SDS011;11261;52.456;10.850;2023-04-15T03:16:53;3.88;;;2.58;;
22191;SDS011;11261;52.456;10.850;2023-04-15T03:19:22;4.05;;;2.55;;
22191;SDS011;11261;52.456;10.850;2023-04-15T03:21:50;4.38;;;2.53;;
22191;SDS011;11261;52.456;10.850;2023-04-15T03:24:19;3.10;;;2.20;;
22191;SDS011;11261;52.456;10.850;2023-04-15T03:26:47;4.10;;;2.50;;
22191;SDS011;11261;52.456;10.850;2023-04-15T03:29:16;3.63;;;2.30;;
22191;SDS011;11261;52.456;10.850;2023-04-15T03:31:45;5.32;;;2.95;;
22191;SDS011;11261;52.456;10.850;2023-04-15T03:34:13;5.13;;;2.85;;
22191;SDS011;11261;52.456;10.850;2023-04-15T03:36:41;4.43;;;2.63;;
22191;SDS011;11261;52.456;10.850;2023-04-15T03:39:09;3.45;;;2.22;;
22191;SDS011;11261;52.456;10.850;2023-04-15T03:41:38;4.43;;;2.75;;
22191;SDS011;11261;52.456;10.850;2023-04-15T03:44:06;3.70;;;2.63;;
22191;SDS011;11261;52.456;10.850;2023-04-15T03:46:36;5.10;;;2.97;;
22191;SDS011;11261;52.456;10.850;2023-04-15T03:49:05;3.75;;;2.42;;
22191;SDS011;11261;52.456;10.850;2023-04-15T03:51:34;3.40;;;2.30;;
22191;SDS011;11261;52.456;10.850;2023-04-15T03:54:02;5.03;;;2.70;;
22191;SDS011;11261;52.456;10.850;2023-04-15T03:56:30;4.63;;;2.80;;
22191;SDS011;11261;52.456;10.850;2023-04-15T03:58:59;3.15;;;2.40;;
22191;SDS011;11261;52.456;10.850;2023-04-15T04:01:27;3.70;;;2.42;;
22191;SDS011;11261;52.456;10.850;2023-04-15T04:03:57;3.35;;;2.15;;
22191;SDS011;11261;52.456;10.850;2023-04-15T04:06:25;3.15;;;2.28;;
22191;SDS011;11261;52.456;10.850;2023-04-15T04:08:53;3.40;;;2.45;;
22191;SDS011;11261;52.456;10.850;2023-04-15T04:11:22;4.63;;;2.38;;
22191;SDS011;11261;52.456;10.850;2023-04-15T04:13:50;3.90;;;2.30;;
22191;SDS011;11261;52.456;10.850;2023-04-15T04:16:18;4.57;;;2.35;;
22191;SDS011;11261;52.456;10.850;2023-04-15T04:18:47;2.88;;;1.85;;
22191;SDS011;11261;52.456;10.850;2023-04-15T04:21:16;3.58;;;2.70;;
22191;SDS011;11261;52.456;10.850;2023-04-15T04:23:45;3.42;;;2.22;;
22191;SDS011;11261;52.456;10.850;2023-04-15T04:26:13;3.88;;;2.47;;
22191;SDS011;11261;52.456;10.850;2023-04-15T04:28:41;4.28;;;2.40;;
22191;SDS011;11261;52.456;10.850;2023-04-15T04:31:10;3.65;;;2.67;;
22191;SDS011;11261;52.456;10.850;2023-04-15T04:33:38;3.58;;;2.40;;
22191;SDS011;11261;52.456;10.850;2023-04-15T04:36:07;3.35;;;2.38;;
22191;SDS011;11261;52.456;10.850;2023-04-15T04:38:36;3.63;;;2.28;;
22191;SDS011;11261;52.456;10.850;2023-04-15T04:41:04;3.67;;;2.30;;
22191;SDS011;11261;52.456;10.850;2023-04-15T04:43:32;4.35;;;2.65;;
22191;SDS011;11261;52.456;10.850;2023-04-15T04:46:01;4.00;;;2.42;;
22191;SDS011;11261;52.456;10.850;2023-04-15T04:48:29;5.25;;;2.83;;
22191;SDS011;11261;52.456;10.850;2023-04-15T04:50:58;2.55;;;2.05;;
22191;SDS011;11261;52.456;10.850;2023-04-15T04:53:26;4.57;;;2.88;;
22191;SDS011;11261;52.456;10.850;2023-04-15T04:55:56;3.67;;;2.00;;
22191;SDS011;11261;52.456;10.850;2023-04-15T04:58:24;2.67;;;2.05;;
22191;SDS011;11261;52.456;10.850;2023-04-15T05:00:52;3.20;;;2.15;;
22191;SDS011;11261;52.456;10.850;2023-04-15T05:03:21;2.42;;;1.77;;
22191;SDS011;11261;52.456;10.850;2023-04-15T05:05:50;2.72;;;2.00;;
22191;SDS011;11261;52.456;10.850;2023-04-15T05:08:18;4.10;;;2.65;;
22191;SDS011;11261;52.456;10.850;2023-04-15T05:10:46;3.38;;;2.45;;
22191;SDS011;11261;52.456;10.850;2023-04-15T05:13:16;2.97;;;2.20;;
22191;SDS011;11261;52.456;10.850;2023-04-15T05:15:44;2.95;;;2.10;;
22191;SDS011;11261;52.456;10.850;2023-04-15T05:18:13;2.90;;;2.05;;
22191;SDS011;11261;52.456;10.850;2023-04-15T05:20:41;4.13;;;2.53;;
22191;SDS011;11261;52.456;10.850;2023-04-15T05:23:09;3.17;;;2.13;;
22191;SDS011;11261;52.456;10.850;2023-04-15T05:25:38;2.60;;;1.88;;
22191;SDS011;11261;52.456;10.850;2023-04-15T05:28:07;5.13;;;2.45;;
22191;SDS011;11261;52.456;10.850;2023-04-15T05:30:36;2.72;;;1.75;;
22191;SDS011;11261;52.456;10.850;2023-04-15T05:33:05;2.78;;;1.90;;
22191;SDS011;11261;52.456;10.850;2023-04-15T05:35:34;2.85;;;1.77;;
22191;SDS011;11261;52.456;10.850;2023-04-15T05:38:02;3.55;;;1.80;;
22191;SDS011;11261;52.456;10.850;2023-04-15T05:40:30;1.85;;;1.52;;
22191;SDS011;11261;52.456;10.850;2023-04-15T05:42:58;3.83;;;2.00;;
22191;SDS011;11261;52.456;10.850;2023-04-15T05:45:26;2.55;;;1.73;;
22191;SDS011;11261;52.456;10.850;2023-04-15T05:47:56;2.85;;;1.95;;
22191;SDS011;11261;52.456;10.850;2023-04-15T05:50:24;3.65;;;2.13;;
22191;SDS011;11261;52.456;10.850;2023-04-15T05:52:52;3.05;;;1.70;;
22191;SDS011;11261;52.456;10.850;2023-04-15T05:55:21;2.92;;;1.85;;
22191;SDS011;11261;52.456;10.850;2023-04-15T05:57:49;2.67;;;1.88;;
22191;SDS011;11261;52.456;10.850;2023-04-15T06:00:18;2.72;;;1.98;;
22191;SDS011;11261;52.456;10.850;2023-04-15T06:02:46;2.70;;;2.05;;
22191;SDS011;11261;52.456;10.850;2023-04-15T06:05:16;3.10;;;2.00;;
22191;SDS011;11261;52.456;10.850;2023-04-15T06:07:44;2.70;;;1.85;;
22191;SDS011;11261;52.456;10.850;2023-04-15T06:10:14;2.72;;;1.77;;
22191;SDS011;11261;52.456;10.850;2023-04-15T06:12:42;2.75;;;1.92;;
22191;SDS011;11261;52.456;10.850;2023-04-15T06:15:10;2.38;;;1.80;;
22191;SDS011;11261;52.456;10.850;2023-04-15T06:17:39;2.75;;;1.90;;
22191;SDS011;11261;52.456;10.850;2023-04-15T06:20:08;3.50;;;2.35;;
22191;SDS011;11261;52.456;10.850;2023-04-15T06:22:38;3.38;;;1.92;;
22191;SDS011;11261;52.456;10.850;2023-04-15T06:25:06;2.75;;;1.95;;
22191;SDS011;11261;52.456;10.850;2023-04-15T06:27:36;3.50;;;1.85;;
22191;SDS011;11261;52.456;10.850;2023-04-15T06:30:05;2.65;;;2.00;;
22191;SDS011;11261;52.456;10.850;2023-04-15T06:32:34;3.05;;;2.30;;
22191;SDS011;11261;52.456;10.850;2023-04-15T06:35:03;2.72;;;1.83;;
22191;SDS011;11261;52.456;10.850;2023-04-15T06:37:31;2.75;;;2.17;;
22191;SDS011;11261;52.456;10.850;2023-04-15T06:40:01;2.90;;;1.95;;
22191;SDS011;11261;52.456;10.850;2023-04-15T06:42:30;2.78;;;1.88;;
22191;SDS011;11261;52.456;10.850;2023-04-15T06:44:59;3.03;;;1.73;;
22191;SDS011;11261;52.456;10.850;2023-04-15T06:47:28;3.65;;;2.08;;
22191;SDS011;11261;52.456;10.850;2023-04-15T06:49:56;3.60;;;2.03;;
22191;SDS011;11261;52.456;10.850;2023-04-15T06:52:24;2.58;;;1.80;;
22191;SDS011;11261;52.456;10.850;2023-04-15T06:54:52;2.70;;;1.90;;
22191;SDS011;11261;52.456;10.850;2023-04-15T06:57:22;3.25;;;2.05;;
22191;SDS011;11261;52.456;10.850;2023-04-15T06:59:50;2.78;;;2.17;;
22191;SDS011;11261;52.456;10.850;2023-04-15T07:02:19;3.92;;;2.13;;
22191;SDS011;11261;52.456;10.850;2023-04-15T07:04:48;2.97;;;2.10;;
22191;SDS011;11261;52.456;10.850;2023-04-15T07:07:16;3.33;;;2.22;;
22191;SDS011;11261;52.456;10.850;2023-04-15T07:09:44;3.55;;;2.60;;
22191;SDS011;11261;52.456;10.850;2023-04-15T07:12:13;3.30;;;2.40;;
22191;SDS011;11261;52.456;10.850;2023-04-15T07:14:42;3.25;;;2.53;;
22191;SDS011;11261;52.456;10.850;2023-04-15T07:17:10;5.15;;;2.90;;
22191;SDS011;11261;52.456;10.850;2023-04-15T07:19:39;3.40;;;2.30;;
22191;SDS011;11261;52.456;10.850;2023-04-15T07:22:07;1.83;;;1.55;;
22191;SDS011;11261;52.456;10.850;2023-04-15T07:24:36;7.53;;;3.88;;
22191;SDS011;11261;52.456;10.850;2023-04-15T07:27:04;6.50;;;3.83;;
22191;SDS011;11261;52.456;10.850;2023-04-15T07:29:32;7.80;;;4.38;;
22191;SDS011;11261;52.456;10.850;2023-04-15T07:32:02;10.48;;;5.00;;
22191;SDS011;11261;52.456;10.850;2023-04-15T07:34:31;10.75;;;6.07;;
22191;SDS011;11261;52.456;10.850;2023-04-15T07:36:59;6.68;;;3.78;;
22191;SDS011;11261;52.456;10.850;2023-04-15T07:39:27;10.75;;;6.00;;
22191;SDS011;11261;52.456;10.850;2023-04-15T07:41:56;12.77;;;7.05;;
22191;SDS011;11261;52.456;10.850;2023-04-15T07:44:25;15.50;;;6.90;;
22191;SDS011;11261;52.456;10.850;2023-04-15T07:46:53;15.00;;;7.50;;
22191;SDS011;11261;52.456;10.850;2023-04-15T07:49:23;15.77;;;7.70;;
22191;SDS011;11261;52.456;10.850;2023-04-15T07:51:51;16.02;;;8.27;;
22191;SDS011;11261;52.456;10.850;2023-04-15T07:54:20;16.83;;;8.70;;
22191;SDS011;11261;52.456;10.850;2023-04-15T07:56:48;16.00;;;8.20;;
22191;SDS011;11261;52.456;10.850;2023-04-15T07:59:16;15.18;;;7.65;;
22191;SDS011;11261;52.456;10.850;2023-04-15T08:01:44;18.75;;;8.20;;
22191;SDS011;11261;52.456;10.850;2023-04-15T08:04:13;15.00;;;7.70;;
22191;SDS011;11261;52.456;10.850;2023-04-15T08:06:42;17.90;;;8.15;;
22191;SDS011;11261;52.456;10.850;2023-04-15T08:09:11;24.15;;;9.95;;
22191;SDS011;11261;52.456;10.850;2023-04-15T08:11:39;17.15;;;7.32;;
22191;SDS011;11261;52.456;10.850;2023-04-15T08:14:07;15.80;;;7.50;;
22191;SDS011;11261;52.456;10.850;2023-04-15T08:16:35;20.63;;;9.57;;
22191;SDS011;11261;52.456;10.850;2023-04-15T08:19:04;18.77;;;9.43;;
22191;SDS011;11261;52.456;10.850;2023-04-15T08:21:32;18.05;;;8.00;;
22191;SDS011;11261;52.456;10.850;2023-04-15T08:24:02;20.20;;;8.95;;
22191;SDS011;11261;52.456;10.850;2023-04-15T08:26:30;24.17;;;10.70;;
22191;SDS011;11261;52.456;10.850;2023-04-15T08:28:59;19.33;;;9.77;;
22191;SDS011;11261;52.456;10.850;2023-04-15T08:31:28;7.28;;;3.53;;
22191;SDS011;11261;52.456;10.850;2023-04-15T08:33:56;21.45;;;9.73;;
22191;SDS011;11261;52.456;10.850;2023-04-15T08:36:24;20.80;;;9.35;;
22191;SDS011;11261;52.456;10.850;2023-04-15T08:38:54;23.15;;;11.43;;
22191;SDS011;11261;52.456;10.850;2023-04-15T08:41:24;24.52;;;10.65;;
22191;SDS011;11261;52.456;10.850;2023-04-15T08:43:55;20.38;;;9.38;;
22191;SDS011;11261;52.456;10.850;2023-04-15T08:46:24;23.50;;;10.10;;
22191;SDS011;11261;52.456;10.850;2023-04-15T08:48:54;23.05;;;10.98;;
22191;SDS011;11261;52.456;10.850;2023-04-15T08:51:24;8.23;;;3.95;;
22191;SDS011;11261;52.456;10.850;2023-04-15T08:53:53;22.48;;;10.38;;
22191;SDS011;11261;52.456;10.850;2023-04-15T08:56:24;25.00;;;11.82;;
22191;SDS011;11261;52.456;10.850;2023-04-15T08:58:53;18.05;;;7.03;;
22191;SDS011;11261;52.456;10.850;2023-04-15T09:01:21;23.80;;;10.05;;
22191;SDS011;11261;52.456;10.850;2023-04-15T09:03:50;31.85;;;12.57;;
22191;SDS011;11261;52.456;10.850;2023-04-15T09:06:20;22.13;;;10.00;;
22191;SDS011;11261;52.456;10.850;2023-04-15T09:08:49;23.77;;;11.27;;
22191;SDS011;11261;52.456;10.850;2023-04-15T09:11:18;25.88;;;11.55;;
22191;SDS011;11261;52.456;10.850;2023-04-15T09:13:49;28.17;;;11.45;;
22191;SDS011;11261;52.456;10.850;2023-04-15T09:16:17;27.52;;;10.82;;
22191;SDS011;11261;52.456;10.850;2023-04-15T09:18:46;28.70;;;10.32;;
22191;SDS011;11261;52.456;10.850;2023-04-15T09:21:15;6.53;;;4.25;;
22191;SDS011;11261;52.456;10.850;2023-04-15T09:23:54;21.90;;;9.73;;
22191;SDS011;11261;52.456;10.850;2023-04-15T09:26:31;22.92;;;10.75;;
22191;SDS011;11261;52.456;10.850;2023-04-15T09:29:05;26.23;;;13.10;;
22191;SDS011;11261;52.456;10.850;2023-04-15T09:31:34;29.02;;;12.95;;
22191;SDS011;11261;52.456;10.850;2023-04-15T09:34:03;15.32;;;7.47;;
22191;SDS011;11261;52.456;10.850;2023-04-15T09:36:37;30.42;;;12.63;;
22191;SDS011;11261;52.456;10.850;2023-04-15T09:39:19;32.92;;;12.85;;
22191;SDS011;11261;52.456;10.850;2023-04-15T09:42:02;31.80;;;13.80;;
22191;SDS011;11261;52.456;10.850;2023-04-15T09:44:34;35.00;;;14.55;;
22191;SDS011;11261;52.456;10.850;2023-04-15T09:47:04;26.55;;;10.55;;
22191;SDS011;11261;52.456;10.850;2023-04-15T09:49:32;30.77;;;14.25;;
22191;SDS011;11261;52.456;10.850;2023-04-15T09:52:01;30.35;;;11.85;;
22191;SDS011;11261;52.456;10.850;2023-04-15T09:54:32;14.45;;;7.07;;
22191;SDS011;11261;52.456;10.850;2023-04-15T09:57:05;20.70;;;8.43;;
22191;SDS011;11261;52.456;10.850;2023-04-15T09:59:37;32.67;;;14.80;;
22191;SDS011;11261;52.456;10.850;2023-04-15T10:02:06;32.35;;;13.57;;
22191;SDS011;11261;52.456;10.850;2023-04-15T10:04:35;31.70;;;14.85;;
22191;SDS011;11261;52.456;10.850;2023-04-15T10:07:07;32.90;;;14.65;;
22191;SDS011;11261;52.456;10.850;2023-04-15T10:09:35;25.27;;;10.57;;
22191;SDS011;11261;52.456;10.850;2023-04-15T10:12:05;29.33;;;12.75;;
22191;SDS011;11261;52.456;10.850;2023-04-15T10:14:34;15.02;;;6.82;;
22191;SDS011;11261;52.456;10.850;2023-04-15T10:17:05;22.92;;;12.18;;
22191;SDS011;11261;52.456;10.850;2023-04-15T10:19:35;34.13;;;14.55;;
22191;SDS011;11261;52.456;10.850;2023-04-15T10:22:05;26.50;;;13.18;;
22191;SDS011;11261;52.456;10.850;2023-04-15T10:24:33;34.78;;;15.55;;
22191;SDS011;11261;52.456;10.850;2023-04-15T10:27:02;29.98;;;14.25;;
22191;SDS011;11261;52.456;10.850;2023-04-15T10:29:32;29.50;;;13.88;;
22191;SDS011;11261;52.456;10.850;2023-04-15T10:32:02;28.05;;;12.45;;
22191;SDS011;11261;52.456;10.850;2023-04-15T10:34:31;26.60;;;12.43;;
22191;SDS011;11261;52.456;10.850;2023-04-15T10:37:00;28.85;;;13.90;;
22191;SDS011;11261;52.456;10.850;2023-04-15T10:39:39;31.65;;;14.88;;
22191;SDS011;11261;52.456;10.850;2023-04-15T10:42:10;19.17;;;8.88;;
22191;SDS011;11261;52.456;10.850;2023-04-15T10:44:40;35.83;;;14.98;;
22191;SDS011;11261;52.456;10.850;2023-04-15T10:47:12;27.55;;;12.38;;
22191;SDS011;11261;52.456;10.850;2023-04-15T10:49:44;33.05;;;16.00;;
22191;SDS011;11261;52.456;10.850;2023-04-15T10:52:14;33.67;;;14.15;;
22191;SDS011;11261;52.456;10.850;2023-04-15T10:54:43;23.77;;;11.10;;
22191;SDS011;11261;52.456;10.850;2023-04-15T10:57:16;30.58;;;14.00;;
22191;SDS011;11261;52.456;10.850;2023-04-15T10:59:59;30.95;;;13.85;;
22191;SDS011;11261;52.456;10.850;2023-04-15T11:02:40;31.13;;;13.63;;
22191;SDS011;11261;52.456;10.850;2023-04-15T11:05:10;28.05;;;11.73;;
22191;SDS011;11261;52.456;10.850;2023-04-15T11:07:41;34.35;;;15.15;;
22191;SDS011;11261;52.456;10.850;2023-04-15T11:13:19;31.00;;;14.50;;
22191;SDS011;11261;52.456;10.850;2023-04-15T11:15:50;31.15;;;15.13;;
22191;SDS011;11261;52.456;10.850;2023-04-15T11:18:26;29.45;;;14.57;;
22191;SDS011;11261;52.456;10.850;2023-04-15T11:20:56;30.25;;;14.45;;
22191;SDS011;11261;52.456;10.850;2023-04-15T11:23:27;30.17;;;12.88;;
22191;SDS011;11261;52.456;10.850;2023-04-15T11:25:57;23.80;;;11.32;;
22191;SDS011;11261;52.456;10.850;2023-04-15T11:28:27;27.15;;;12.13;;
22191;SDS011;11261;52.456;10.850;2023-04-15T11:30:56;28.48;;;13.35;;
22191;SDS011;11261;52.456;10.850;2023-04-15T11:33:26;30.73;;;13.93;;
22191;SDS011;11261;52.456;10.850;2023-04-15T11:35:54;34.95;;;14.38;;
22191;SDS011;11261;52.456;10.850;2023-04-15T11:38:22;25.65;;;13.73;;
22191;SDS011;11261;52.456;10.850;2023-04-15T11:40:51;30.90;;;13.10;;
22191;SDS011;11261;52.456;10.850;2023-04-15T11:43:19;27.92;;;13.10;;
22191;SDS011;11261;52.456;10.850;2023-04-15T11:45:52;32.22;;;13.43;;
22191;SDS011;11261;52.456;10.850;2023-04-15T11:48:22;25.67;;;12.85;;
22191;SDS011;11261;52.456;10.850;2023-04-15T11:50:55;29.00;;;13.02;;
22191;SDS011;11261;52.456;10.850;2023-04-15T11:53:24;26.42;;;13.52;;
22191;SDS011;11261;52.456;10.850;2023-04-15T11:56:04;25.65;;;13.18;;
22191;SDS011;11261;52.456;10.850;2023-04-15T11:58:33;30.55;;;13.80;;
22191;SDS011;11261;52.456;10.850;2023-04-15T12:01:04;30.55;;;13.70;;
22191;SDS011;11261;52.456;10.850;2023-04-15T12:03:36;27.27;;;11.85;;
22191;SDS011;11261;52.456;10.850;2023-04-15T12:06:09;31.83;;;14.20;;
22191;SDS011;11261;52.456;10.850;2023-04-15T12:11:40;26.33;;;12.23;;
22191;SDS011;11261;52.456;10.850;2023-04-15T12:14:18;26.95;;;12.30;;
22191;SDS011;11261;52.456;10.850;2023-04-15T12:16:49;25.98;;;12.23;;
22191;SDS011;11261;52.456;10.850;2023-04-15T12:19:23;33.53;;;14.25;;
22191;SDS011;11261;52.456;10.850;2023-04-15T12:21:56;27.55;;;13.48;;
22191;SDS011;11261;52.456;10.850;2023-04-15T12:24:26;29.65;;;13.77;;
22191;SDS011;11261;52.456;10.850;2023-04-15T12:26:54;32.63;;;14.43;;
22191;SDS011;11261;52.456;10.850;2023-04-15T12:29:24;27.30;;;12.88;;
22191;SDS011;11261;52.456;10.850;2023-04-15T12:31:54;27.15;;;13.32;;
22191;SDS011;11261;52.456;10.850;2023-04-15T12:34:27;24.25;;;11.43;;
22191;SDS011;11261;52.456;10.850;2023-04-15T12:36:58;32.45;;;13.30;;
22191;SDS011;11261;52.456;10.850;2023-04-15T12:39:28;28.48;;;13.23;;
22191;SDS011;11261;52.456;10.850;2023-04-15T12:41:58;22.92;;;12.15;;
22191;SDS011;11261;52.456;10.850;2023-04-15T12:44:27;25.48;;;12.55;;
22191;SDS011;11261;52.456;10.850;2023-04-15T12:46:55;22.42;;;12.38;;
22191;SDS011;11261;52.456;10.850;2023-04-15T12:49:26;30.20;;;13.00;;
22191;SDS011;11261;52.456;10.850;2023-04-15T12:51:55;24.98;;;13.45;;
22191;SDS011;11261;52.456;10.850;2023-04-15T12:54:26;23.08;;;13.07;;
22191;SDS011;11261;52.456;10.850;2023-04-15T12:56:54;25.95;;;11.73;;
22191;SDS011;11261;52.456;10.850;2023-04-15T12:59:23;21.67;;;11.45;;
22191;SDS011;11261;52.456;10.850;2023-04-15T13:01:51;22.90;;;11.80;;
22191;SDS011;11261;52.456;10.850;2023-04-15T13:04:20;20.92;;;10.93;;
22191;SDS011;11261;52.456;10.850;2023-04-15T13:06:49;17.65;;;10.20;;
22191;SDS011;11261;52.456;10.850;2023-04-15T13:09:19;25.17;;;14.13;;
22191;SDS011;11261;52.456;10.850;2023-04-15T13:11:48;24.00;;;13.52;;
22191;SDS011;11261;52.456;10.850;2023-04-15T13:14:18;23.27;;;10.95;;
22191;SDS011;11261;52.456;10.850;2023-04-15T13:16:46;22.10;;;12.95;;
22191;SDS011;11261;52.456;10.850;2023-04-15T13:19:14;24.88;;;13.10;;
22191;SDS011;11261;52.456;10.850;2023-04-15T13:21:43;24.98;;;12.98;;
22191;SDS011;11261;52.456;10.850;2023-04-15T13:24:11;22.25;;;12.65;;
22191;SDS011;11261;52.456;10.850;2023-04-15T13:26:41;22.85;;;12.30;;
22191;SDS011;11261;52.456;10.850;2023-04-15T13:29:09;18.58;;;10.85;;
22191;SDS011;11261;52.456;10.850;2023-04-15T13:31:38;22.10;;;12.02;;
22191;SDS011;11261;52.456;10.850;2023-04-15T13:34:07;20.23;;;12.15;;
22191;SDS011;11261;52.456;10.850;2023-04-15T13:36:35;21.92;;;12.43;;
22191;SDS011;11261;52.456;10.850;2023-04-15T13:39:03;20.30;;;12.57;;
22191;SDS011;11261;52.456;10.850;2023-04-15T13:41:31;19.98;;;11.85;;
22191;SDS011;11261;52.456;10.850;2023-04-15T13:44:01;21.45;;;12.75;;
22191;SDS011;11261;52.456;10.850;2023-04-15T13:46:30;20.92;;;12.57;;
22191;SDS011;11261;52.456;10.850;2023-04-15T13:48:59;20.58;;;12.63;;
22191;SDS011;11261;52.456;10.850;2023-04-15T13:51:28;20.50;;;12.77;;
22191;SDS011;11261;52.456;10.850;2023-04-15T13:53:56;18.15;;;11.25;;
22191;SDS011;11261;52.456;10.850;2023-04-15T13:56:24;17.77;;;11.60;;
22191;SDS011;11261;52.456;10.850;2023-04-15T13:58:52;17.25;;;10.85;;
22191;SDS011;11261;52.456;10.850;2023-04-15T14:01:25;19.35;;;10.07;;
22191;SDS011;11261;52.456;10.850;2023-04-15T14:03:53;16.17;;;10.02;;
22191;SDS011;11261;52.456;10.850;2023-04-15T14:06:22;18.77;;;9.38;;
22191;SDS011;11261;52.456;10.850;2023-04-15T14:08:51;16.58;;;9.75;;
22191;SDS011;11261;52.456;10.850;2023-04-15T14:11:19;14.48;;;9.95;;
22191;SDS011;11261;52.456;10.850;2023-04-15T14:13:48;14.15;;;9.45;;
22191;SDS011;11261;52.456;10.850;2023-04-15T14:16:16;11.13;;;8.05;;
22191;SDS011;11261;52.456;10.850;2023-04-15T14:18:45;12.40;;;8.30;;
22191;SDS011;11261;52.456;10.850;2023-04-15T14:21:14;14.80;;;8.38;;
22191;SDS011;11261;52.456;10.850;2023-04-15T14:23:42;15.00;;;8.77;;
22191;SDS011;11261;52.456;10.850;2023-04-15T14:26:10;13.30;;;7.38;;
22191;SDS011;11261;52.456;10.850;2023-04-15T14:28:39;12.73;;;8.88;;
22191;SDS011;11261;52.456;10.850;2023-04-15T14:31:08;15.80;;;8.82;;
22191;SDS011;11261;52.456;10.850;2023-04-15T14:33:36;17.15;;;8.55;;
22191;SDS011;11261;52.456;10.850;2023-04-15T14:36:06;12.65;;;8.30;;
22191;SDS011;11261;52.456;10.850;2023-04-15T14:38:35;13.70;;;8.15;;
22191;SDS011;11261;52.456;10.850;2023-04-15T14:41:05;11.77;;;8.20;;